createdAt,value
2018-09-13T00:01:06.678Z,13.93
2018-09-13T00:03:36.150Z,13.75
2018-09-13T00:06:05.400Z,13.68
2018-09-13T00:08:34.742Z,13.66
2018-09-13T00:11:04.314Z,13.71
2018-09-13T00:13:33.930Z,13.75
2018-09-13T00:16:03.332Z,13.85
2018-09-13T00:18:32.863Z,13.87
2018-09-13T00:21:02.334Z,13.85
2018-09-13T00:23:31.854Z,13.75
2018-09-13T00:26:01.210Z,13.81
2018-09-13T00:28:30.503Z,13.72
2018-09-13T00:30:59.877Z,13.72
2018-09-13T00:33:29.115Z,13.71
2018-09-13T00:35:58.451Z,13.71
2018-09-13T00:38:27.727Z,13.55
2018-09-13T00:40:58.071Z,13.69
2018-09-13T00:43:27.410Z,13.56
2018-09-13T00:45:56.731Z,13.56
2018-09-13T00:48:26.002Z,13.59
2018-09-13T00:50:55.314Z,13.56
2018-09-13T00:53:24.557Z,13.42
2018-09-13T00:55:53.978Z,13.37
2018-09-13T00:58:23.372Z,13.39
2018-09-13T01:00:52.707Z,13.44
2018-09-13T01:03:22.164Z,13.51
2018-09-13T01:05:51.506Z,13.40
2018-09-13T01:08:21.074Z,13.43
2018-09-13T01:10:50.423Z,13.43
2018-09-13T01:13:19.747Z,13.40
2018-09-13T01:15:49.119Z,13.47
2018-09-13T01:18:18.566Z,13.37
2018-09-13T01:20:47.907Z,13.37
2018-09-13T01:23:17.361Z,13.21
2018-09-13T01:25:46.726Z,13.20
2018-09-13T01:28:16.155Z,13.30
2018-09-13T01:30:45.572Z,13.31
2018-09-13T01:33:14.966Z,13.25
2018-09-13T01:35:44.265Z,13.20
2018-09-13T01:38:13.404Z,13.08
2018-09-13T01:40:42.675Z,13.17
2018-09-13T01:43:11.962Z,13.21
2018-09-13T01:45:41.365Z,13.23
2018-09-13T01:48:11.268Z,13.26
2018-09-13T01:50:40.613Z,13.36
2018-09-13T01:53:09.946Z,13.18
2018-09-13T01:55:40.420Z,13.17
2018-09-13T01:58:09.984Z,13.09
2018-09-13T02:00:39.219Z,13.16
2018-09-13T02:03:08.519Z,13.18
2018-09-13T02:05:37.794Z,13.16
2018-09-13T02:08:07.254Z,13.06
2018-09-13T02:10:36.729Z,13.10
2018-09-13T02:13:06.497Z,13.11
2018-09-13T02:15:35.953Z,13.07
2018-09-13T02:18:05.400Z,13.10
2018-09-13T02:20:35.456Z,13.15
2018-09-13T02:23:04.754Z,13.06
2018-09-13T02:25:34.052Z,13.01
2018-09-13T02:28:03.403Z,13.03
2018-09-13T02:30:32.908Z,12.92
2018-09-13T02:33:02.152Z,12.86
2018-09-13T02:35:31.489Z,12.87
2018-09-13T02:38:00.868Z,12.86
2018-09-13T02:40:31.283Z,12.91
2018-09-13T02:43:00.685Z,12.93
2018-09-13T02:45:30.156Z,12.95
2018-09-13T02:47:59.746Z,12.95
2018-09-13T02:50:29.228Z,12.87
2018-09-13T02:52:58.728Z,12.88
2018-09-13T02:55:28.106Z,12.90
2018-09-13T02:57:57.420Z,12.88
2018-09-13T03:00:26.670Z,12.92
2018-09-13T03:02:56.033Z,12.93
2018-09-13T03:05:25.246Z,12.90
2018-09-13T03:07:54.690Z,12.98
2018-09-13T03:10:24.267Z,13.06
2018-09-13T03:12:53.664Z,12.97
2018-09-13T03:15:22.975Z,12.91
2018-09-13T03:17:52.528Z,12.93
2018-09-13T03:20:22.095Z,12.89
2018-09-13T03:22:51.473Z,12.84
2018-09-13T03:25:20.842Z,12.77
2018-09-13T03:27:50.245Z,12.77
2018-09-13T03:30:19.670Z,12.79
2018-09-13T03:32:49.008Z,12.75
2018-09-13T03:35:18.782Z,12.85
2018-09-13T03:37:48.084Z,12.70
2018-09-13T03:40:17.501Z,12.72
2018-09-13T03:42:46.911Z,12.65
2018-09-13T03:45:16.410Z,12.56
2018-09-13T03:47:45.724Z,12.53
2018-09-13T03:50:15.165Z,12.54
2018-09-13T03:52:45.407Z,12.48
2018-09-13T03:55:14.885Z,12.40
2018-09-13T03:57:44.413Z,12.50
2018-09-13T04:00:13.897Z,12.46
2018-09-13T04:02:43.255Z,12.38
2018-09-13T04:05:14.983Z,12.42
2018-09-13T04:07:44.532Z,12.38
2018-09-13T04:10:13.729Z,12.37
2018-09-13T04:12:43.928Z,12.34
2018-09-13T04:15:13.263Z,12.31
2018-09-13T04:17:42.665Z,12.34
2018-09-13T04:20:11.960Z,12.27
2018-09-13T04:22:41.256Z,12.24
2018-09-13T04:25:10.549Z,12.24
2018-09-13T04:27:39.902Z,12.20
2018-09-13T04:30:09.296Z,12.25
2018-09-13T04:32:39.324Z,12.14
2018-09-13T04:35:08.670Z,12.10
2018-09-13T04:37:37.958Z,12.18
2018-09-13T04:40:07.300Z,12.24
2018-09-13T04:42:36.728Z,12.10
2018-09-13T04:45:06.346Z,12.07
2018-09-13T04:47:35.724Z,12.00
2018-09-13T04:50:05.577Z,12.00
2018-09-13T04:52:35.186Z,12.06
2018-09-13T04:55:04.536Z,12.07
2018-09-13T04:57:34.095Z,12.11
2018-09-13T05:00:03.481Z,12.08
2018-09-13T05:02:32.887Z,12.12
2018-09-13T05:05:02.080Z,12.06
2018-09-13T05:07:31.504Z,12.08
2018-09-13T05:10:00.840Z,11.96
2018-09-13T05:12:30.155Z,12.04
2018-09-13T05:15:00.179Z,12.02
2018-09-13T05:17:29.461Z,12.07
2018-09-13T05:19:58.796Z,12.25
2018-09-13T05:22:28.727Z,12.46
2018-09-13T05:24:58.066Z,12.87
2018-09-13T05:27:27.470Z,13.78
2018-09-13T05:29:57.434Z,14.92
2018-09-13T05:32:26.791Z,14.52
2018-09-13T05:34:56.481Z,14.90
2018-09-13T05:37:25.756Z,15.90
2018-09-13T05:39:55.104Z,15.70
2018-09-13T05:42:24.488Z,14.74
2018-09-13T05:44:53.879Z,14.41
2018-09-13T05:47:23.177Z,14.14
2018-09-13T05:49:52.507Z,13.96
2018-09-13T05:52:21.725Z,13.92
2018-09-13T05:54:51.310Z,14.08
2018-09-13T05:57:20.649Z,14.06
2018-09-13T05:59:49.781Z,13.90
2018-09-13T06:02:19.124Z,14.05
2018-09-13T06:04:48.453Z,14.10
2018-09-13T06:07:17.878Z,14.09
2018-09-13T06:09:47.409Z,14.14
2018-09-13T06:12:17.373Z,14.12
2018-09-13T06:14:47.969Z,14.26
2018-09-13T06:17:17.322Z,14.29
2018-09-13T06:19:46.564Z,14.44
2018-09-13T06:22:20.646Z,14.71
2018-09-13T06:24:50.015Z,14.98
2018-09-13T06:27:19.407Z,15.25
2018-09-13T06:29:48.904Z,15.23
2018-09-13T06:32:18.628Z,15.34
2018-09-13T06:34:47.973Z,15.17
2018-09-13T06:37:17.691Z,15.48
2018-09-13T06:39:47.183Z,15.87
2018-09-13T06:42:16.746Z,16.03
2018-09-13T06:44:46.607Z,15.89
2018-09-13T06:47:15.786Z,16.05
2018-09-13T06:49:46.358Z,16.14
2018-09-13T06:52:15.638Z,16.27
2018-09-13T06:54:45.357Z,16.06
2018-09-13T06:57:14.767Z,16.30
2018-09-13T06:59:44.266Z,16.73
2018-09-13T07:02:13.707Z,16.50
2018-09-13T07:04:43.003Z,16.98
2018-09-13T07:07:12.244Z,16.74
2018-09-13T07:09:41.498Z,16.85
2018-09-13T07:12:10.872Z,16.89
2018-09-13T07:14:40.230Z,16.85
2018-09-13T07:17:09.644Z,17.31
2018-09-13T07:19:39.089Z,17.08
2018-09-13T07:22:08.368Z,17.25
2018-09-13T07:24:37.684Z,17.59
2018-09-13T07:27:07.110Z,18.06
2018-09-13T07:29:36.516Z,18.15
2018-09-13T07:32:05.912Z,17.76
2018-09-13T07:34:35.270Z,17.53
2018-09-13T07:37:04.812Z,17.99
2018-09-13T07:39:35.193Z,18.53
2018-09-13T07:42:04.665Z,18.16
2018-09-13T07:44:34.036Z,18.61
2018-09-13T07:47:03.571Z,19.05
2018-09-13T07:49:34.076Z,18.92
2018-09-13T07:52:04.274Z,19.18
2018-09-13T07:54:33.525Z,19.19
2018-09-13T07:57:02.790Z,19.21
2018-09-13T07:59:32.033Z,19.65
2018-09-13T08:02:01.371Z,19.74
2018-09-13T08:04:30.673Z,20.00
2018-09-13T08:07:00.655Z,19.54
2018-09-13T08:09:29.812Z,19.99
2018-09-13T08:11:59.403Z,20.16
2018-09-13T08:14:29.309Z,19.69
2018-09-13T08:16:58.773Z,20.16
2018-09-13T08:19:28.493Z,20.21
2018-09-13T08:21:57.982Z,20.50
2018-09-13T08:24:27.391Z,20.92
2018-09-13T08:26:56.818Z,20.90
2018-09-13T08:29:27.178Z,20.65
2018-09-13T08:31:56.670Z,21.09
2018-09-13T08:34:26.088Z,21.46
2018-09-13T08:36:55.649Z,21.55
2018-09-13T08:39:25.027Z,21.40
2018-09-13T08:41:54.301Z,21.58
2018-09-13T08:44:24.630Z,21.67
2018-09-13T08:46:53.982Z,21.86
2018-09-13T08:49:23.329Z,21.90
2018-09-13T08:51:52.737Z,21.54
2018-09-13T08:54:22.090Z,22.28
2018-09-13T08:56:51.872Z,22.34
2018-09-13T08:59:21.291Z,22.68
2018-09-13T09:01:50.683Z,22.67
2018-09-13T09:04:20.164Z,22.62
2018-09-13T09:06:49.560Z,22.86
2018-09-13T09:09:19.790Z,23.06
2018-09-13T09:11:49.376Z,23.31
2018-09-13T09:14:19.982Z,23.17
2018-09-13T09:16:49.306Z,22.18
2018-09-13T09:19:19.149Z,22.72
2018-09-13T09:21:48.549Z,23.55
2018-09-13T09:24:17.988Z,23.58
2018-09-13T09:26:47.368Z,23.87
2018-09-13T09:29:16.879Z,23.91
2018-09-13T09:31:46.305Z,23.82
2018-09-13T09:34:15.933Z,23.42
2018-09-13T09:36:45.286Z,24.29
2018-09-13T09:39:15.223Z,24.28
2018-09-13T09:41:44.662Z,24.10
2018-09-13T09:44:14.007Z,24.02
2018-09-13T09:46:43.365Z,23.78
2018-09-13T09:49:12.640Z,24.14
2018-09-13T09:51:41.913Z,24.77
2018-09-13T09:54:11.898Z,25.04
2018-09-13T09:56:41.200Z,25.07
2018-09-13T09:59:10.819Z,24.40
2018-09-13T10:01:45.113Z,24.54
2018-09-13T10:04:14.474Z,24.55
2018-09-13T10:06:44.493Z,24.74
2018-09-13T10:09:13.882Z,24.67
2018-09-13T10:11:43.453Z,25.03
2018-09-13T10:14:12.821Z,24.72
2018-09-13T10:16:47.092Z,25.56
2018-09-13T10:19:21.569Z,25.79
2018-09-13T10:21:56.064Z,25.46
2018-09-13T10:24:30.520Z,25.96
2018-09-13T10:27:04.908Z,25.97
2018-09-13T10:29:39.416Z,26.37
2018-09-13T10:32:14.627Z,26.38
2018-09-13T10:34:49.032Z,26.96
2018-09-13T10:39:26.159Z,26.18
2018-09-13T10:42:00.604Z,26.73
2018-09-13T10:44:35.120Z,26.61
2018-09-13T10:49:12.097Z,26.42
2018-09-13T10:51:46.623Z,26.66
2018-09-13T10:54:25.151Z,26.66
2018-09-13T10:56:54.502Z,26.60
2018-09-13T10:59:25.362Z,26.45
2018-09-13T11:01:55.088Z,26.90
2018-09-13T11:04:24.501Z,26.51
2018-09-13T11:06:53.760Z,26.81
2018-09-13T11:09:22.959Z,26.70
2018-09-13T11:11:52.475Z,26.75
2018-09-13T11:14:25.953Z,27.31
2018-09-13T11:16:55.491Z,27.54
2018-09-13T11:19:24.745Z,27.30
2018-09-13T11:21:54.328Z,27.40
2018-09-13T11:24:23.770Z,27.53
2018-09-13T11:26:53.119Z,27.51
2018-09-13T11:29:22.645Z,27.85
2018-09-13T11:31:52.857Z,27.41
2018-09-13T11:34:22.162Z,27.71
2018-09-13T11:36:52.432Z,28.01
2018-09-13T11:39:22.227Z,28.01
2018-09-13T11:41:53.815Z,28.11
2018-09-13T11:44:24.709Z,27.70
2018-09-13T11:46:53.994Z,28.49
2018-09-13T11:49:23.378Z,28.11
2018-09-13T11:51:53.121Z,28.43
2018-09-13T11:54:22.543Z,28.53
2018-09-13T11:56:52.123Z,28.56
2018-09-13T11:59:21.474Z,27.85
2018-09-13T12:01:51.576Z,28.20
2018-09-13T12:04:20.906Z,28.03
2018-09-13T12:06:50.545Z,28.40
2018-09-13T12:09:20.057Z,28.00
2018-09-13T12:11:49.460Z,28.34
2018-09-13T12:14:19.304Z,28.49
2018-09-13T12:16:48.845Z,28.79
2018-09-13T12:19:18.327Z,29.09
2018-09-13T12:21:47.651Z,29.14
2018-09-13T12:24:17.015Z,28.56
2018-09-13T12:26:46.269Z,28.78
2018-09-13T12:29:15.715Z,28.32
2018-09-13T12:31:45.103Z,28.73
2018-09-13T12:34:15.640Z,28.53
2018-09-13T12:36:46.026Z,28.43
2018-09-13T12:39:16.062Z,28.89
2018-09-13T12:41:45.351Z,28.87
2018-09-13T12:44:14.668Z,28.97
2018-09-13T12:46:44.049Z,29.18
2018-09-13T12:49:14.560Z,29.02
2018-09-13T12:51:44.120Z,29.04
2018-09-13T12:54:13.603Z,29.04
2018-09-13T12:56:43.319Z,29.21
2018-09-13T12:59:12.880Z,28.72
2018-09-13T13:01:43.482Z,28.73
2018-09-13T13:04:14.374Z,28.68
2018-09-13T13:06:43.799Z,28.48
2018-09-13T13:09:13.475Z,28.50
2018-09-13T13:11:42.914Z,28.40
2018-09-13T13:14:12.546Z,28.15
2018-09-13T13:16:42.321Z,28.11
2018-09-13T13:19:11.520Z,28.01
2018-09-13T13:21:40.961Z,28.01
2018-09-13T13:24:10.376Z,27.84
2018-09-13T13:26:39.836Z,27.90
2018-09-13T13:29:09.588Z,27.87
2018-09-13T13:31:38.900Z,28.14
2018-09-13T13:34:09.489Z,28.23
2018-09-13T13:36:38.979Z,28.74
2018-09-13T13:39:09.766Z,28.50
2018-09-13T13:41:40.040Z,28.50
2018-09-13T13:44:09.485Z,28.33
2018-09-13T13:46:39.827Z,28.13
2018-09-13T13:49:09.226Z,28.48
2018-09-13T13:51:38.753Z,28.59
2018-09-13T13:54:08.925Z,28.70
2018-09-13T13:56:38.491Z,28.63
2018-09-13T13:59:08.414Z,28.45
2018-09-13T14:01:38.107Z,28.32
2018-09-13T14:04:07.594Z,28.27
2018-09-13T14:06:37.973Z,28.51
2018-09-13T14:09:10.839Z,28.41
2018-09-13T14:11:40.316Z,28.44
2018-09-13T14:14:09.799Z,28.43
2018-09-13T14:16:40.926Z,28.60
2018-09-13T14:19:11.051Z,28.62
2018-09-13T14:21:40.851Z,28.18
2018-09-13T14:24:10.813Z,28.12
2018-09-13T14:26:41.284Z,27.99
2018-09-13T14:29:10.694Z,28.01
2018-09-13T14:31:41.293Z,27.92
2018-09-13T14:34:11.790Z,27.56
2018-09-13T14:36:42.187Z,27.78
2018-09-13T14:39:12.105Z,27.53
2018-09-13T14:41:42.167Z,27.49
2018-09-13T14:44:11.540Z,27.56
2018-09-13T14:46:41.104Z,27.54
2018-09-13T14:49:10.637Z,27.54
2018-09-13T14:51:40.137Z,27.56
2018-09-13T14:54:09.768Z,27.47
2018-09-13T14:56:39.160Z,27.39
2018-09-13T14:59:09.442Z,27.33
2018-09-13T15:01:38.942Z,27.23
2018-09-13T15:04:10.200Z,27.15
2018-09-13T15:06:40.234Z,27.09
2018-09-13T15:09:13.413Z,27.00
2018-09-13T15:11:42.978Z,26.84
2018-09-13T15:14:12.501Z,26.84
2018-09-13T15:16:42.596Z,26.75
2018-09-13T15:19:13.324Z,26.60
2018-09-13T15:21:44.020Z,26.53
2018-09-13T15:24:14.205Z,26.46
2018-09-13T15:26:43.855Z,26.38
2018-09-13T15:29:13.419Z,26.30
2018-09-13T15:31:43.734Z,26.20
2018-09-13T15:34:13.071Z,26.11
2018-09-13T15:36:42.566Z,25.98
2018-09-13T15:39:13.103Z,25.91
2018-09-13T15:41:42.692Z,25.82
2018-09-13T15:44:13.028Z,26.06
2018-09-13T15:46:42.465Z,25.92
2018-09-13T15:49:12.755Z,25.86
2018-09-13T15:51:42.112Z,25.84
2018-09-13T15:54:11.616Z,25.84
2018-09-13T15:56:42.082Z,25.64
2018-09-13T15:59:11.524Z,25.37
2018-09-13T16:01:40.965Z,25.40
2018-09-13T16:04:10.429Z,25.42
2018-09-13T16:06:39.823Z,25.36
2018-09-13T16:09:09.762Z,25.06
2018-09-13T16:11:39.445Z,24.51
2018-09-13T16:14:09.590Z,24.45
2018-09-13T16:16:38.955Z,24.43
2018-09-13T16:19:08.568Z,24.07
2018-09-13T16:21:38.279Z,23.73
2018-09-13T16:24:08.055Z,23.65
2018-09-13T16:26:37.634Z,23.57
2018-09-13T16:29:07.079Z,23.58
2018-09-13T16:31:36.980Z,23.17
2018-09-13T16:34:07.178Z,23.18
2018-09-13T16:36:38.041Z,22.99
2018-09-13T16:39:28.555Z,22.98
2018-09-13T16:42:03.821Z,22.92
2018-09-13T16:44:47.744Z,22.85
2018-09-13T16:47:29.711Z,22.89
2018-09-13T16:50:00.099Z,22.89
2018-09-13T16:52:30.252Z,22.79
2018-09-13T16:54:59.607Z,22.27
2018-09-13T16:57:29.180Z,22.33
2018-09-13T16:59:58.621Z,22.02
2018-09-13T17:02:28.181Z,22.35
2018-09-13T17:04:57.630Z,22.39
2018-09-13T17:07:27.179Z,22.55
2018-09-13T17:09:56.877Z,22.58
2018-09-13T17:12:26.263Z,22.39
2018-09-13T17:14:56.077Z,22.33
2018-09-13T17:17:25.669Z,22.28
2018-09-13T17:19:55.298Z,22.08
2018-09-13T17:22:24.715Z,22.11
2018-09-13T17:24:54.204Z,22.14
2018-09-13T17:27:23.956Z,21.99
2018-09-13T17:29:53.253Z,21.93
2018-09-13T17:32:22.602Z,21.72
2018-09-13T17:34:51.780Z,21.74
2018-09-13T17:37:22.334Z,21.81
2018-09-13T17:39:51.628Z,21.72
2018-09-13T17:42:21.072Z,21.85
2018-09-13T17:44:50.530Z,21.86
2018-09-13T17:47:21.064Z,21.90
2018-09-13T17:49:50.579Z,21.54
2018-09-13T17:52:19.947Z,21.62
2018-09-13T17:54:49.374Z,21.52
2018-09-13T17:57:18.998Z,21.62
2018-09-13T17:59:54.453Z,21.43
2018-09-13T18:02:26.166Z,21.23
2018-09-13T18:04:56.902Z,21.20
2018-09-13T18:07:27.573Z,21.23
2018-09-13T18:09:57.237Z,21.11
2018-09-13T18:12:26.540Z,21.08
2018-09-13T18:14:57.650Z,20.85
2018-09-13T18:17:28.568Z,20.64
2018-09-13T18:19:58.109Z,20.77
2018-09-13T18:22:28.918Z,20.65
2018-09-13T18:24:58.363Z,20.45
2018-09-13T18:27:27.863Z,20.45
2018-09-13T18:30:00.267Z,20.12
2018-09-13T18:32:30.049Z,19.83
2018-09-13T18:34:59.946Z,20.03
2018-09-13T18:37:30.313Z,20.25
2018-09-13T18:39:59.829Z,20.17
2018-09-13T18:42:29.327Z,19.98
2018-09-13T18:44:59.362Z,19.84
2018-09-13T18:47:28.913Z,19.73
2018-09-13T18:49:59.026Z,19.55
2018-09-13T18:52:29.853Z,19.28
2018-09-13T18:55:00.567Z,19.44
2018-09-13T18:57:30.137Z,19.67
2018-09-13T19:00:00.908Z,19.87
2018-09-13T19:02:31.186Z,19.60
2018-09-13T19:05:04.724Z,19.06
2018-09-13T19:07:34.896Z,18.88
2018-09-13T19:10:04.504Z,18.67
2018-09-13T19:12:33.918Z,18.76
2018-09-13T19:15:03.552Z,19.05
2018-09-13T19:17:33.145Z,18.96
2018-09-13T19:20:03.666Z,19.02
2018-09-13T19:22:34.335Z,19.23
2018-09-13T19:25:03.903Z,19.19
2018-09-13T19:27:33.629Z,19.20
2018-09-13T19:30:04.535Z,19.15
2018-09-13T19:32:34.926Z,19.12
2018-09-13T19:35:05.152Z,18.94
2018-09-13T19:37:34.604Z,18.76
2018-09-13T19:40:03.909Z,18.76
2018-09-13T19:42:33.414Z,18.76
2018-09-13T19:45:03.712Z,18.67
2018-09-13T19:47:33.672Z,18.77
2018-09-13T19:50:03.613Z,18.83
2018-09-13T19:52:34.645Z,18.80
2018-09-13T19:55:04.012Z,18.80
2018-09-13T19:57:36.018Z,18.76
2018-09-13T20:00:06.156Z,18.61
2018-09-13T20:02:37.180Z,18.70
2018-09-13T20:05:06.511Z,18.63
2018-09-13T20:07:36.513Z,18.50
2018-09-13T20:10:05.931Z,18.48
2018-09-13T20:12:35.849Z,18.50
2018-09-13T20:15:05.892Z,18.67
2018-09-13T20:17:35.359Z,18.95
2018-09-13T20:20:05.196Z,18.81
2018-09-13T20:22:34.440Z,18.66
2018-09-13T20:25:03.980Z,18.59
2018-09-13T20:27:34.916Z,18.52
2018-09-13T20:30:05.427Z,18.70
2018-09-13T20:32:35.100Z,18.73
2018-09-13T20:35:04.982Z,18.75
2018-09-13T20:37:34.461Z,18.61
2018-09-13T20:40:04.147Z,18.74
2018-09-13T20:42:34.467Z,18.64
2018-09-13T20:45:04.046Z,18.60
2018-09-13T20:47:33.605Z,18.59
2018-09-13T20:50:03.442Z,18.59
2018-09-13T20:52:33.135Z,18.10
2018-09-13T20:55:04.320Z,18.18
2018-09-13T20:57:34.579Z,18.38
2018-09-13T21:00:04.162Z,18.41
2018-09-13T21:02:33.479Z,18.34
2018-09-13T21:05:02.917Z,18.28
2018-09-13T21:07:32.033Z,18.26
2018-09-13T21:10:01.049Z,18.45
2018-09-13T21:12:30.164Z,18.39
2018-09-13T21:14:59.261Z,18.53
2018-09-13T21:17:28.465Z,18.48
2018-09-13T21:19:57.850Z,18.58
2018-09-13T21:22:26.994Z,18.48
2018-09-13T21:24:56.097Z,18.53
2018-09-13T21:27:25.171Z,18.57
2018-09-13T21:29:54.384Z,18.41
2018-09-13T21:32:23.518Z,18.40
2018-09-13T21:34:52.832Z,18.39
2018-09-13T21:37:22.188Z,18.40
2018-09-13T21:39:51.592Z,18.39
2018-09-13T21:42:20.940Z,18.24
2018-09-13T21:44:50.212Z,18.06
2018-09-13T21:47:19.535Z,18.01
2018-09-13T21:49:49.753Z,18.24
2018-09-13T21:52:19.205Z,18.15
2018-09-13T21:54:48.589Z,18.14
2018-09-13T21:57:17.941Z,18.29
2018-09-13T21:59:47.397Z,18.16
2018-09-13T22:02:17.511Z,18.19
2018-09-13T22:04:47.171Z,18.06
2018-09-13T22:07:16.588Z,18.08
2018-09-13T22:09:46.108Z,18.08
2018-09-13T22:12:15.535Z,18.11
2018-09-13T22:14:44.928Z,18.14
2018-09-13T22:17:14.350Z,18.06
2018-09-13T22:19:43.776Z,18.15
2018-09-13T22:22:13.090Z,18.10
2018-09-13T22:24:42.772Z,17.93
2018-09-13T22:27:12.216Z,18.03
2018-09-13T22:29:41.687Z,18.06
2018-09-13T22:32:10.954Z,18.00
2018-09-13T22:34:40.221Z,17.85
2018-09-13T22:37:09.592Z,17.80
2018-09-13T22:39:38.708Z,17.90
2018-09-13T22:42:08.119Z,17.81
2018-09-13T22:44:42.386Z,17.83
2018-09-13T22:47:12.347Z,17.87
2018-09-13T22:49:42.184Z,17.78
2018-09-13T22:52:11.567Z,17.91
2018-09-13T22:54:40.850Z,17.89
2018-09-13T22:57:10.096Z,17.90
2018-09-13T22:59:39.336Z,17.86
2018-09-13T23:02:09.502Z,17.80
2018-09-13T23:04:38.698Z,17.64
2018-09-13T23:07:08.028Z,17.52
2018-09-13T23:09:37.432Z,17.68
2018-09-13T23:12:06.659Z,17.72
2018-09-13T23:14:36.081Z,17.77
2018-09-13T23:17:05.462Z,17.66
2018-09-13T23:19:35.702Z,17.64
2018-09-13T23:22:06.148Z,17.67
2018-09-13T23:24:35.440Z,17.57
2018-09-13T23:27:04.773Z,17.58
2018-09-13T23:29:34.074Z,17.65
2018-09-13T23:32:03.343Z,17.65
2018-09-13T23:34:32.765Z,17.61
2018-09-13T23:37:02.807Z,17.54
2018-09-13T23:39:32.193Z,17.55
2018-09-13T23:42:01.494Z,17.54
2018-09-13T23:44:30.985Z,17.68
2018-09-13T23:47:00.504Z,17.52
2018-09-13T23:49:30.022Z,17.50
2018-09-13T23:51:59.480Z,17.48
2018-09-13T23:54:28.708Z,17.41
2018-09-13T23:56:58.015Z,17.40
2018-09-13T23:59:27.478Z,17.35
